createdAt,value
2022-07-28T00:00:39.015Z,9.60
2022-07-28T00:05:36.599Z,9.77
2022-07-28T00:10:39.049Z,10.13
2022-07-28T00:15:46.048Z,9.27
2022-07-28T00:26:04.759Z,9.38
2022-07-28T00:31:05.016Z,9.27
2022-07-28T00:36:06.696Z,8.90
2022-07-28T00:41:18.396Z,8.38
2022-07-28T00:46:26.451Z,8.60
2022-07-28T00:51:27.487Z,7.65
2022-07-28T00:56:29.946Z,8.10
2022-07-28T01:01:31.764Z,7.15
2022-07-28T01:06:52.882Z,7.50
2022-07-28T01:12:04.185Z,6.65
2022-07-28T01:17:13.097Z,6.03
2022-07-28T01:22:19.707Z,6.28
2022-07-28T01:27:54.596Z,6.43
2022-07-28T01:33:21.021Z,5.80
2022-07-28T01:38:20.037Z,6.72
2022-07-28T01:43:23.915Z,6.10
2022-07-28T01:48:25.037Z,5.13
2022-07-28T01:53:26.042Z,5.72
2022-07-28T01:58:30.173Z,6.85
2022-07-28T02:03:31.946Z,6.22
2022-07-28T02:08:32.378Z,6.50
2022-07-28T02:13:33.249Z,5.60
2022-07-28T02:18:33.870Z,4.75
2022-07-28T02:23:32.871Z,4.85
2022-07-28T02:28:35.066Z,5.45
2022-07-28T02:33:58.793Z,5.00
2022-07-28T02:39:06.382Z,4.75
2022-07-28T02:44:16.744Z,5.35
2022-07-28T02:49:34.361Z,5.75
2022-07-28T02:54:39.766Z,7.20
2022-07-28T02:59:44.403Z,6.45
2022-07-28T03:04:58.391Z,7.25
2022-07-28T03:09:59.916Z,5.50
2022-07-28T03:15:00.873Z,4.20
2022-07-28T03:20:06.345Z,4.50
2022-07-28T03:25:11.286Z,5.03
2022-07-28T03:30:18.487Z,4.25
2022-07-28T03:35:19.156Z,4.40
2022-07-28T03:47:01.412Z,4.03
2022-07-28T03:52:56.642Z,4.55
2022-07-28T03:59:38.634Z,4.88
2022-07-28T04:05:29.740Z,4.03
2022-07-28T04:22:51.324Z,4.57
2022-07-28T04:28:23.385Z,4.70
2022-07-28T04:33:24.477Z,4.47
2022-07-28T04:38:37.400Z,4.95
2022-07-28T04:44:35.408Z,6.05
2022-07-28T04:50:16.557Z,7.55
2022-07-28T04:55:40.275Z,7.00
2022-07-28T05:01:35.810Z,5.18
2022-07-28T05:07:20.547Z,5.32
2022-07-28T05:12:30.298Z,5.45
2022-07-28T05:17:30.810Z,5.65
2022-07-28T05:22:46.255Z,5.45
2022-07-28T05:27:50.382Z,5.05
2022-07-28T05:33:00.964Z,5.22
2022-07-28T05:38:11.355Z,6.18
2022-07-28T05:43:21.310Z,8.80
2022-07-28T05:48:32.088Z,6.80
2022-07-28T05:54:03.455Z,6.15
2022-07-28T06:04:56.513Z,6.63
2022-07-28T06:10:08.243Z,6.85
2022-07-28T06:16:17.721Z,8.52
2022-07-28T06:22:42.991Z,7.95
2022-07-28T06:28:50.055Z,6.40
2022-07-28T06:55:11.357Z,6.95
2022-07-28T07:06:37.035Z,5.07
2022-07-28T07:19:26.962Z,5.50
2022-07-28T07:32:20.657Z,5.30
2022-07-28T07:58:53.702Z,7.03
2022-07-28T11:23:58.934Z,6.82
2022-07-28T11:29:22.527Z,6.80
2022-07-28T11:34:26.341Z,5.72
2022-07-28T11:39:51.077Z,5.78
2022-07-28T11:44:49.479Z,6.00
2022-07-28T11:50:53.763Z,7.07
2022-07-28T11:56:13.119Z,6.53
2022-07-28T12:01:38.237Z,6.63
2022-07-28T12:06:40.212Z,7.13
2022-07-28T12:11:54.782Z,7.25
2022-07-28T12:16:54.833Z,6.07
2022-07-28T12:21:55.315Z,6.25
2022-07-28T12:26:59.100Z,5.40
2022-07-28T12:32:04.422Z,5.88
2022-07-28T12:37:05.606Z,5.68
2022-07-28T12:42:08.202Z,6.38
2022-07-28T12:47:08.460Z,5.32
2022-07-28T12:52:22.967Z,6.25
2022-07-28T12:57:50.350Z,6.05
2022-07-28T13:03:05.150Z,5.40
2022-07-28T13:08:18.914Z,6.85
2022-07-28T13:13:27.207Z,6.00
2022-07-28T13:18:52.480Z,5.00
2022-07-28T13:24:09.722Z,6.20
2022-07-28T13:29:59.643Z,5.47
2022-07-28T13:35:34.152Z,5.45
2022-07-28T13:41:15.853Z,5.35
2022-07-28T13:46:17.994Z,6.85
2022-07-28T13:51:27.555Z,5.50
2022-07-28T13:56:26.231Z,5.28
2022-07-28T14:01:24.584Z,5.20
2022-07-28T14:06:28.130Z,6.50
2022-07-28T14:11:27.231Z,6.60
2022-07-28T14:16:25.251Z,7.82
2022-07-28T14:21:22.337Z,12.88
2022-07-28T14:26:35.544Z,10.90
2022-07-28T14:31:38.407Z,9.77
2022-07-28T14:36:35.633Z,7.75
2022-07-28T14:41:33.437Z,6.68
2022-07-28T14:46:32.879Z,7.38
2022-07-28T14:51:34.260Z,6.78
2022-07-28T14:56:44.422Z,7.10
2022-07-28T15:01:41.687Z,7.82
2022-07-28T15:06:42.673Z,6.95
2022-07-28T15:11:49.382Z,6.70
2022-07-28T15:17:13.168Z,6.57
2022-07-28T15:22:19.495Z,6.97
2022-07-28T15:27:33.042Z,6.05
2022-07-28T15:32:31.794Z,7.28
2022-07-28T15:37:30.452Z,6.93
2022-07-28T15:42:28.162Z,7.93
2022-07-28T15:47:25.641Z,7.30
2022-07-28T15:52:40.496Z,8.43
2022-07-28T16:02:58.659Z,8.77
2022-07-28T16:07:57.454Z,9.25
2022-07-28T16:12:57.141Z,8.65
2022-07-28T16:17:54.846Z,10.93
2022-07-28T16:22:52.610Z,8.38
2022-07-28T16:28:03.022Z,7.88
2022-07-28T16:33:00.585Z,8.13
2022-07-28T16:37:59.900Z,8.10
2022-07-28T16:43:15.988Z,8.77
2022-07-28T16:48:25.892Z,8.50
2022-07-28T16:53:28.432Z,8.63
2022-07-28T16:58:37.100Z,8.98
2022-07-28T17:03:34.572Z,8.18
2022-07-28T17:09:27.598Z,8.52
2022-07-28T17:14:37.212Z,8.73
2022-07-28T17:20:06.882Z,7.85
2022-07-28T17:31:02.439Z,6.85
2022-07-28T17:36:45.169Z,7.45
2022-07-28T17:41:55.930Z,7.90
2022-07-28T17:47:04.159Z,5.93
2022-07-28T17:52:32.348Z,6.82
2022-07-28T17:58:08.946Z,8.13
2022-07-28T18:03:18.642Z,6.68
2022-07-28T18:09:08.177Z,6.18
2022-07-28T18:15:03.185Z,6.57
2022-07-28T18:20:38.105Z,6.40
2022-07-28T18:25:55.169Z,6.43
2022-07-28T18:30:52.658Z,7.28
2022-07-28T18:35:51.959Z,7.28
2022-07-28T18:40:52.761Z,7.70
2022-07-28T18:45:51.789Z,6.97
2022-07-28T18:50:50.384Z,7.65
2022-07-28T18:55:48.842Z,8.23
2022-07-28T19:00:47.521Z,7.80
2022-07-28T19:06:08.153Z,8.52
2022-07-28T19:11:05.647Z,7.70
2022-07-28T19:16:04.567Z,8.02
2022-07-28T19:21:10.524Z,7.90
2022-07-28T19:26:08.670Z,7.55
2022-07-28T19:31:10.115Z,8.05
2022-07-28T19:36:24.339Z,8.27
2022-07-28T19:41:30.824Z,7.35
2022-07-28T19:47:38.157Z,8.63
2022-07-28T19:52:37.455Z,7.97
2022-07-28T19:58:49.507Z,7.75
2022-07-28T20:04:03.748Z,8.38
2022-07-28T20:09:08.077Z,6.60
2022-07-28T20:19:51.085Z,7.25
2022-07-28T20:29:48.341Z,6.47
2022-07-28T20:34:53.030Z,7.72
2022-07-28T20:39:54.767Z,8.60
2022-07-28T20:44:54.314Z,7.55
2022-07-28T20:49:55.162Z,8.10
2022-07-28T20:54:54.867Z,8.15
2022-07-28T20:59:53.077Z,7.40
2022-07-28T21:04:50.736Z,7.90
2022-07-28T21:09:48.173Z,8.45
2022-07-28T21:15:53.537Z,6.50
2022-07-28T21:21:13.366Z,7.13
2022-07-28T21:26:55.764Z,7.90
2022-07-28T21:33:07.183Z,7.38
2022-07-28T21:38:26.170Z,7.47
2022-07-28T21:43:24.533Z,7.18
2022-07-28T21:48:24.373Z,7.60
2022-07-28T21:53:21.795Z,7.90
2022-07-28T21:58:19.071Z,7.97
2022-07-28T22:03:16.640Z,8.25
2022-07-28T22:08:14.986Z,8.15
2022-07-28T22:13:12.306Z,8.57
2022-07-28T22:18:13.409Z,8.35
2022-07-28T22:23:28.676Z,7.60
2022-07-28T22:28:29.938Z,10.07
2022-07-28T22:33:27.839Z,9.52
2022-07-28T22:38:26.364Z,7.90
2022-07-28T22:43:24.634Z,9.32
2022-07-28T22:48:21.591Z,7.80
2022-07-28T22:53:19.637Z,8.50
2022-07-28T22:58:18.400Z,8.27
2022-07-28T23:03:15.961Z,9.23
2022-07-28T23:08:13.545Z,10.25
2022-07-28T23:13:10.785Z,12.75
2022-07-28T23:18:09.526Z,11.45
2022-07-28T23:23:08.185Z,11.43
2022-07-28T23:28:05.694Z,11.82
2022-07-28T23:33:04.011Z,11.60
2022-07-28T23:38:02.160Z,13.07
2022-07-28T23:42:59.377Z,11.85
2022-07-28T23:47:58.945Z,13.30
2022-07-28T23:52:56.367Z,12.00
2022-07-28T23:57:58.037Z,11.10
